Time;durP1;ratioP1;P1;durP2;ratioP2;P2;SDS_P1;SDS_P2;PMS_P1;PMS_P2;Temp;Humidity;BMP_temperature;BMP_pressure;BME280_temperature;BME280_humidity;BME280_pressure;Samples;Min_cycle;Max_cycle;Signal;HPM_P1;HPM_P2
2022/03/12 00:01:42;;;;;;;102.97;62.28;;;;;;;-7.92;100.00;102560.34;5074383;28;20040;-80
2022/03/12 00:04:09;;;;;;;80.20;57.72;;;;;;;-8.82;100.00;102565.22;5069210;28;20052;-80
2022/03/12 00:06:36;;;;;;;95.53;62.75;;;;;;;-8.63;100.00;102561.31;5074418;28;20060;-80
2022/03/12 00:09:05;;;;;;;81.18;57.60;;;;;;;-9.48;100.00;102557.22;5075167;28;20117;-80
2022/03/12 00:11:34;;;;;;;69.60;51.65;;;;;;;-9.60;100.00;102562.63;5074194;28;20059;-83
2022/03/12 00:14:03;;;;;;;70.45;50.92;;;;;;;-9.21;100.00;102572.97;5072732;28;20127;-81
2022/03/12 00:16:31;;;;;;;61.70;49.53;;;;;;;-8.84;100.00;102569.56;5057459;28;20040;-80
2022/03/12 00:19:01;;;;;;;51.63;46.42;;;;;;;-9.13;100.00;102568.50;5074347;28;20048;-81
2022/03/12 00:21:30;;;;;;;46.50;40.67;;;;;;;-9.53;100.00;102571.94;5072520;28;20044;-82
2022/03/12 00:23:59;;;;;;;47.92;43.33;;;;;;;-9.82;100.00;102587.94;5073941;28;20126;-82
2022/03/12 00:29:01;;;;;;;51.50;45.67;;;;;;;-8.90;100.00;102572.28;5140294;27;20403;-81
2022/03/12 00:31:27;;;;;;;59.92;50.50;;;;;;;-8.97;100.00;102574.16;5090344;28;20056;-82
2022/03/12 00:33:54;;;;;;;63.33;53.55;;;;;;;-8.96;100.00;102569.84;5090721;28;20044;-79
2022/03/12 00:36:21;;;;;;;55.33;48.55;;;;;;;-9.62;100.00;102582.41;5090192;28;20193;-82
2022/03/12 00:39:04;;;;;;;51.30;44.85;;;;;;;-9.82;100.00;102567.38;5070630;27;20755;-81
2022/03/12 00:41:30;;;;;;;48.72;43.50;;;;;;;-10.40;100.00;102577.00;5070127;28;20480;-80
2022/03/12 00:43:57;;;;;;;54.15;44.40;;;;;;;-10.18;100.00;102576.59;5070216;28;20118;-80
2022/03/12 00:46:24;;;;;;;66.85;49.58;;;;;;;-9.47;100.00;102569.25;5069983;28;20538;-81
2022/03/12 00:48:51;;;;;;;66.95;52.38;;;;;;;-9.51;100.00;102571.91;5069978;28;20121;-80
2022/03/12 00:51:17;;;;;;;47.78;41.90;;;;;;;-9.89;100.00;102573.50;5070780;28;20458;-80
2022/03/12 00:53:44;;;;;;;47.38;42.50;;;;;;;-10.19;100.00;102570.63;5052890;28;20050;-82
2022/03/12 00:56:12;;;;;;;59.47;49.60;;;;;;;-9.46;100.00;102560.63;5070094;28;20055;-81
2022/03/12 00:58:45;;;;;;;50.95;45.50;;;;;;;-9.86;100.00;102563.16;5069730;28;20048;-80
2022/03/12 01:01:12;;;;;;;61.55;51.90;;;;;;;-9.52;100.00;102562.50;5070257;28;20048;-79
2022/03/12 01:03:39;;;;;;;69.47;50.00;;;;;;;-9.43;100.00;102561.47;5070458;28;20053;-80
2022/03/12 01:06:07;;;;;;;48.60;43.88;;;;;;;-10.51;100.00;102554.94;5069646;28;20053;-80
2022/03/12 01:08:35;;;;;;;50.92;45.72;;;;;;;-9.76;100.00;102562.09;5067808;28;20049;-81
2022/03/12 01:11:04;;;;;;;46.88;40.22;;;;;;;-10.18;100.00;102558.63;5061217;28;20409;-81
2022/03/12 01:13:32;;;;;;;44.83;40.15;;;;;;;-9.98;100.00;102560.84;5063416;28;20136;-82
2022/03/12 01:16:00;;;;;;;93.80;56.15;;;;;;;-10.05;100.00;102561.81;5067443;28;20048;-81
2022/03/12 01:18:28;;;;;;;84.65;53.85;;;;;;;-9.69;100.00;102562.81;5069024;28;20072;-80
2022/03/12 01:20:55;;;;;;;92.95;57.58;;;;;;;-9.54;100.00;102553.94;5069639;28;20052;-80
2022/03/12 01:23:25;;;;;;;71.07;48.20;;;;;;;-9.96;100.00;102572.75;5055134;28;20127;-81
2022/03/12 01:25:53;;;;;;;74.68;50.85;;;;;;;-10.41;100.00;102567.63;5061066;28;20053;-80
2022/03/12 01:28:21;;;;;;;89.32;56.38;;;;;;;-10.81;100.00;102561.41;5059025;28;20152;-80
2022/03/12 01:30:49;;;;;;;90.68;55.65;;;;;;;-10.21;100.00;102569.78;5061137;28;20059;-80
2022/03/12 01:35:57;;;;;;;140.93;73.65;;;;;;;-11.15;100.00;102567.06;5084539;27;20416;-80
2022/03/12 01:38:30;;;;;;;173.77;86.90;;;;;;;-10.77;100.00;102563.06;5079998;28;20049;-82
2022/03/12 01:40:57;;;;;;;159.48;84.97;;;;;;;-10.52;100.00;102559.25;5080693;28;20209;-81
2022/03/12 01:43:26;;;;;;;183.93;88.68;;;;;;;-10.45;100.00;102558.25;5073526;28;20102;-80
2022/03/12 01:45:52;;;;;;;222.13;102.75;;;;;;;-10.77;100.00;102558.78;5087278;28;20516;-80
2022/03/12 01:48:19;;;;;;;181.30;91.60;;;;;;;-10.62;100.00;102568.81;5078643;28;20045;-80
2022/03/12 01:50:46;;;;;;;194.60;93.70;;;;;;;-10.72;100.00;102574.13;5084233;28;20060;-82
2022/03/12 01:53:15;;;;;;;168.27;86.63;;;;;;;-11.06;100.00;102556.66;5076851;28;20048;-83
2022/03/12 01:55:43;;;;;;;157.23;83.93;;;;;;;-10.99;100.00;102576.22;5081327;28;20113;-82
2022/03/12 01:58:09;;;;;;;164.60;83.50;;;;;;;-10.66;100.00;102567.16;5071111;28;20045;-80
2022/03/12 02:00:43;;;;;;;153.32;79.63;;;;;;;-11.05;100.00;102568.59;5084465;28;20538;-80
2022/03/12 02:03:10;;;;;;;160.18;83.40;;;;;;;-11.54;100.00;102577.81;5083676;28;20134;-84
2022/03/12 02:05:38;;;;;;;140.65;77.93;;;;;;;-11.27;100.00;102568.06;5078173;28;20052;-81
2022/03/12 02:08:05;;;;;;;125.97;76.00;;;;;;;-11.14;100.00;102566.16;5077985;28;20132;-81
2022/03/12 02:10:36;;;;;;;147.02;82.38;;;;;;;-10.70;100.00;102569.81;5079990;28;20056;-80
2022/03/12 02:13:03;;;;;;;142.63;80.93;;;;;;;-10.69;100.00;102571.50;5076991;28;20098;-81
2022/03/12 02:15:31;;;;;;;94.10;61.53;;;;;;;-10.94;100.00;102566.75;5077146;28;20052;-82
2022/03/12 02:17:58;;;;;;;88.55;63.17;;;;;;;-10.90;100.00;102570.94;5072254;28;20059;-81
2022/03/12 02:20:25;;;;;;;91.80;66.88;;;;;;;-10.73;100.00;102578.41;5079934;28;20060;-82
2022/03/12 02:22:53;;;;;;;65.35;55.47;;;;;;;-10.81;100.00;102571.69;5079675;28;20056;-82
2022/03/12 02:25:27;;;;;;;56.83;50.72;;;;;;;-10.80;100.00;102573.38;5080957;28;20181;-81
2022/03/12 02:27:53;;;;;;;58.30;51.67;;;;;;;-10.67;100.00;102580.03;5078917;28;20048;-81
2022/03/12 02:30:22;;;;;;;56.22;50.38;;;;;;;-10.82;100.00;102572.56;5081708;28;20524;-80
2022/03/12 02:32:53;;;;;;;57.75;50.72;;;;;;;-10.85;100.00;102565.75;5081363;28;20060;-81
2022/03/12 02:35:24;;;;;;;59.13;50.42;;;;;;;-11.27;100.00;102575.75;5079968;28;20374;-81
2022/03/12 02:37:52;;;;;;;61.95;52.55;;;;;;;-10.99;100.00;102581.34;5079420;28;20083;-82
2022/03/12 02:40:20;;;;;;;63.75;55.38;;;;;;;-10.86;100.00;102572.63;5077300;28;20076;-81
2022/03/12 02:42:49;;;;;;;65.75;51.72;;;;;;;-11.56;100.00;102574.44;5079615;28;20101;-81
2022/03/12 02:45:16;;;;;;;75.05;57.40;;;;;;;-10.85;100.00;102573.47;5070075;28;20052;-80
2022/03/12 02:47:43;;;;;;;71.78;56.53;;;;;;;-11.24;100.00;102575.72;5068469;28;20110;-80
2022/03/12 02:50:12;;;;;;;91.93;66.35;;;;;;;-10.58;100.00;102587.59;5065659;28;20139;-82
2022/03/12 02:55:57;;;;;;;69.13;58.55;;;;;;;-10.91;100.00;102596.66;5081347;27;20889;-81
2022/03/12 02:58:23;;;;;;;68.90;55.50;;;;;;;-10.70;100.00;102593.75;5065677;28;20049;-80
2022/03/12 03:03:39;;;;;;;116.70;87.45;;;;;;;-11.23;100.00;102589.38;4830063;27;8279213;-81
2022/03/12 03:06:06;;;;;;;112.95;82.53;;;;;;;-10.50;100.00;102603.72;5110922;28;20142;-83
2022/03/12 03:08:34;;;;;;;90.30;69.30;;;;;;;-10.40;100.00;102604.44;5110943;28;20537;-81
2022/03/12 03:11:01;;;;;;;142.38;88.78;;;;;;;-10.08;100.00;102603.84;5110266;28;20048;-80
2022/03/12 03:13:36;;;;;;;115.60;77.43;;;;;;;-10.22;100.00;102601.53;5106497;28;20048;-83
2022/03/12 03:16:55;;;;;;;79.75;63.78;;;;;;;-10.37;100.00;102596.69;5134728;27;20407;-80
2022/03/12 03:19:25;;;;;;;97.20;67.43;;;;;;;-10.39;100.00;102606.13;5101330;28;20048;-80
2022/03/12 03:21:53;;;;;;;95.53;69.38;;;;;;;-10.32;100.00;102609.44;5098109;28;20066;-80
2022/03/12 03:24:20;;;;;;;105.43;78.20;;;;;;;-10.08;100.00;102601.25;5100038;28;20543;-80
2022/03/12 03:29:19;;;;;;;82.20;65.82;;;;;;;-10.16;100.00;102600.56;5085083;27;20397;-80
2022/03/12 03:31:46;;;;;;;81.10;57.33;;;;;;;-10.20;100.00;102597.19;5062424;28;20042;-83
2022/03/12 03:34:13;;;;;;;79.00;58.63;;;;;;;-10.27;100.00;102602.50;5069930;28;20056;-81
2022/03/12 03:36:40;;;;;;;73.22;60.35;;;;;;;-10.11;100.00;102596.19;5069909;28;20477;-81
2022/03/12 03:39:07;;;;;;;89.78;63.03;;;;;;;-10.43;100.00;102602.75;5070080;28;20118;-80
2022/03/12 03:41:34;;;;;;;145.52;84.90;;;;;;;-10.41;100.00;102600.16;5069192;28;20102;-82
2022/03/12 03:44:01;;;;;;;127.15;76.65;;;;;;;-9.98;100.00;102610.53;5069893;28;20045;-81
2022/03/12 03:46:29;;;;;;;97.18;64.70;;;;;;;-10.22;100.00;102606.66;5070187;28;20055;-81
2022/03/12 03:48:56;;;;;;;91.78;62.85;;;;;;;-10.32;100.00;102607.69;5070091;28;20059;-80
2022/03/12 03:51:23;;;;;;;104.90;65.22;;;;;;;-10.18;100.00;102608.28;5069633;28;20057;-80
2022/03/12 03:53:50;;;;;;;117.90;72.75;;;;;;;-10.02;100.00;102616.56;5069172;28;20465;-81
2022/03/12 03:56:18;;;;;;;130.30;75.53;;;;;;;-10.11;100.00;102608.19;5068928;28;20045;-80
2022/03/12 03:58:45;;;;;;;121.20;76.38;;;;;;;-9.97;100.00;102609.63;5069522;28;20554;-80
2022/03/12 04:01:15;;;;;;;97.70;65.10;;;;;;;-9.93;100.00;102618.97;5069913;28;20044;-80
2022/03/12 04:03:47;;;;;;;97.45;67.60;;;;;;;-10.07;100.00;102613.25;5050093;28;20110;-80
2022/03/12 04:06:15;;;;;;;107.40;65.20;;;;;;;-10.12;100.00;102620.19;5049262;28;20091;-80
2022/03/12 04:08:42;;;;;;;95.32;63.05;;;;;;;-10.15;100.00;102615.09;5049259;28;20122;-82
2022/03/12 04:11:15;;;;;;;112.78;70.63;;;;;;;-9.87;100.00;102628.31;5041135;28;20137;-81
2022/03/12 04:13:42;;;;;;;114.82;73.80;;;;;;;-10.08;100.00;102616.69;5049057;28;20053;-81
2022/03/12 04:16:09;;;;;;;115.90;74.82;;;;;;;-9.97;100.00;102619.06;5049767;28;20639;-80
2022/03/12 04:18:37;;;;;;;124.40;74.07;;;;;;;-10.00;100.00;102622.56;5049634;28;20456;-81
2022/03/12 04:21:07;;;;;;;114.40;75.93;;;;;;;-10.16;100.00;102618.56;5049215;28;20067;-83
2022/03/12 04:23:34;;;;;;;120.10;76.45;;;;;;;-10.82;100.00;102629.06;5049118;28;20549;-80
2022/03/12 04:26:01;;;;;;;115.13;76.05;;;;;;;-10.51;100.00;102622.56;5048389;28;20500;-80
2022/03/12 04:28:32;;;;;;;118.75;75.18;;;;;;;-10.23;100.00;102622.94;5044409;28;20452;-82
2022/03/12 04:31:00;;;;;;;118.65;76.13;;;;;;;-10.24;100.00;102628.13;5049669;28;20550;-81
2022/03/12 04:33:28;;;;;;;118.47;76.57;;;;;;;-10.70;100.00;102618.59;5048864;28;20059;-81
2022/03/12 04:35:57;;;;;;;114.05;74.03;;;;;;;-10.38;100.00;102631.81;5049043;28;20128;-82
2022/03/12 04:38:25;;;;;;;114.57;70.43;;;;;;;-10.15;100.00;102628.81;5044441;28;20114;-80
2022/03/12 04:40:55;;;;;;;105.90;69.28;;;;;;;-10.14;100.00;102630.50;5023473;28;20409;-80
2022/03/12 04:43:22;;;;;;;114.63;73.07;;;;;;;-10.16;100.00;102641.69;5032959;28;20060;-81
2022/03/12 04:45:50;;;;;;;97.07;66.45;;;;;;;-10.17;100.00;102637.41;5036139;28;20132;-80
2022/03/12 04:48:20;;;;;;;160.15;98.32;;;;;;;-10.22;100.00;102639.22;5035255;28;20041;-83
2022/03/12 04:50:47;;;;;;;171.07;107.55;;;;;;;-10.17;100.00;102635.69;5031873;28;20053;-80
2022/03/12 04:53:15;;;;;;;126.45;81.95;;;;;;;-10.86;100.00;102638.50;5035308;28;20386;-82
2022/03/12 04:55:45;;;;;;;149.52;90.45;;;;;;;-10.00;100.00;102639.69;5034504;28;20103;-82
2022/03/12 04:58:12;;;;;;;119.07;76.00;;;;;;;-10.63;100.00;102639.03;5035752;28;20059;-79
2022/03/12 05:00:40;;;;;;;109.38;71.50;;;;;;;-10.41;100.00;102643.81;5036135;28;20057;-80
2022/03/12 05:03:08;;;;;;;121.07;77.28;;;;;;;-9.70;100.00;102644.28;5034922;28;20119;-81
2022/03/12 05:07:29;;;;;;;119.68;76.65;;;;;;;-9.92;100.00;102648.13;5087629;27;20408;-80
2022/03/12 05:09:56;;;;;;;122.22;79.85;;;;;;;-9.60;100.00;102649.25;5073637;28;20553;-81
2022/03/12 05:12:24;;;;;;;121.85;79.40;;;;;;;-9.05;100.00;102640.41;5078235;28;20117;-82
2022/03/12 05:14:51;;;;;;;131.88;88.80;;;;;;;-8.88;100.00;102647.78;5081918;28;20649;-80
2022/03/12 05:17:18;;;;;;;140.55;91.80;;;;;;;-8.73;100.00;102644.03;5086462;28;20055;-80
2022/03/12 05:19:45;;;;;;;111.00;79.13;;;;;;;-8.56;100.00;102652.25;5079483;28;20058;-80
2022/03/12 05:22:12;;;;;;;101.60;71.88;;;;;;;-8.27;100.00;102653.22;5078347;28;20067;-84
2022/03/12 05:24:40;;;;;;;107.80;73.18;;;;;;;-8.33;100.00;102646.50;5073799;28;20086;-82
2022/03/12 05:27:08;;;;;;;139.80;85.00;;;;;;;-8.28;100.00;102647.22;5079446;28;20052;-81
2022/03/12 05:29:35;;;;;;;169.38;93.45;;;;;;;-7.95;100.00;102649.88;5080753;28;20049;-80
2022/03/12 05:32:02;;;;;;;198.30;98.30;;;;;;;-7.79;100.00;102651.16;5072842;28;20091;-83
2022/03/12 05:37:11;;;;;;;136.50;88.70;;;;;;;-7.74;100.00;102651.03;5083591;27;20402;-81
2022/03/12 05:39:38;;;;;;;101.47;73.30;;;;;;;-7.93;100.00;102666.97;5073782;28;20051;-80
2022/03/12 05:42:06;;;;;;;83.97;66.07;;;;;;;-7.82;100.00;102663.28;5080255;28;20450;-81
2022/03/12 05:44:34;;;;;;;73.30;57.80;;;;;;;-8.20;100.00;102670.22;5077894;28;20476;-80
2022/03/12 05:47:01;;;;;;;69.15;54.90;;;;;;;-7.55;100.00;102669.44;5076929;28;20114;-81
2022/03/12 05:49:28;;;;;;;64.80;52.90;;;;;;;-7.67;100.00;102671.47;5078682;28;20565;-80
2022/03/12 17:45:02;;;;;;;60.03;52.78;;;;;;;-2.86;100.00;102498.75;5005135;27;20135;-80
2022/03/12 17:47:32;;;;;;;110.60;68.20;;;;;;;-2.61;100.00;102496.63;5079776;28;20052;-81
2022/03/12 17:50:04;;;;;;;114.03;69.22;;;;;;;-2.60;100.00;102502.69;5083010;28;20049;-80
2022/03/12 17:52:33;;;;;;;166.20;87.07;;;;;;;-2.34;100.00;102496.97;5081017;28;20055;-80
2022/03/12 17:55:01;;;;;;;163.95;80.13;;;;;;;-2.58;100.00;102490.41;5078737;28;20053;-80
2022/03/12 17:57:28;;;;;;;123.95;65.22;;;;;;;-2.63;100.00;102498.47;5075862;28;20041;-80
2022/03/12 17:59:56;;;;;;;121.78;63.47;;;;;;;-2.74;100.00;102495.56;5076856;28;20140;-79
2022/03/12 18:02:24;;;;;;;204.38;94.57;;;;;;;-3.18;100.00;102495.09;5074938;28;20548;-80
2022/03/12 18:04:51;;;;;;;161.70;80.95;;;;;;;-2.97;100.00;102490.63;5067176;28;20519;-82
2022/03/12 18:07:18;;;;;;;138.23;72.22;;;;;;;-2.74;100.00;102505.97;5067049;28;20052;-80
2022/03/12 18:09:48;;;;;;;130.98;68.95;;;;;;;-2.74;100.00;102494.72;5066507;28;20059;-82
2022/03/12 18:12:17;;;;;;;106.88;63.80;;;;;;;-2.77;100.00;102503.50;5055438;28;20128;-81
2022/03/12 18:14:45;;;;;;;126.97;69.82;;;;;;;-2.94;100.00;102499.13;5071220;28;20056;-80
2022/03/12 18:20:07;;;;;;;172.10;75.93;;;;;;;-2.87;100.00;102497.94;5103121;27;20412;-81
2022/03/12 18:22:34;;;;;;;136.65;73.75;;;;;;;-3.06;100.00;102503.16;5101975;28;20036;-80
2022/03/12 18:25:01;;;;;;;191.73;84.18;;;;;;;-3.04;100.00;102500.50;5104720;28;20059;-79
2022/03/12 18:27:28;;;;;;;141.40;72.43;;;;;;;-3.18;100.00;102490.75;5103193;28;20040;-80
2022/03/12 18:29:54;;;;;;;132.20;70.13;;;;;;;-3.09;100.00;102499.88;5102277;28;20065;-81
2022/03/12 18:32:23;;;;;;;144.98;74.45;;;;;;;-2.97;100.00;102498.44;5107242;28;20052;-82
2022/03/12 18:34:53;;;;;;;221.18;93.45;;;;;;;-2.97;100.00;102491.47;5099985;28;20143;-82
2022/03/12 18:37:23;;;;;;;142.15;70.68;;;;;;;-2.95;100.00;102494.84;5074718;28;20040;-80
2022/03/12 18:39:54;;;;;;;142.20;75.20;;;;;;;-2.82;100.00;102493.31;5006887;28;20092;-80
2022/03/12 18:42:22;;;;;;;115.28;69.55;;;;;;;-3.08;100.00;102488.56;5053435;28;20055;-80
2022/03/12 18:45:20;;;;;;;111.63;70.43;;;;;;;-2.64;100.00;102483.75;5110945;27;20411;-79
2022/03/12 18:47:47;;;;;;;75.80;57.72;;;;;;;-2.83;100.00;102489.03;5085557;28;20051;-81
2022/03/12 18:50:14;;;;;;;94.07;61.65;;;;;;;-3.03;100.00;102481.38;5086691;28;20055;-80
2022/03/12 18:52:41;;;;;;;77.47;63.83;;;;;;;-3.00;100.00;102478.63;5084708;28;20056;-83
2022/03/12 18:55:08;;;;;;;105.05;72.82;;;;;;;-2.68;100.00;102486.63;5083270;28;20399;-79
2022/03/12 19:03:27;;;;;;;70.70;62.60;;;;;;;-2.58;100.00;102488.66;5077702;27;20398;-80
2022/03/12 19:05:55;;;;;;;99.38;69.43;;;;;;;-2.62;100.00;102489.75;5062194;28;20422;-81
2022/03/12 19:08:24;;;;;;;104.03;66.30;;;;;;;-2.71;100.00;102484.16;5059067;28;20477;-80
2022/03/12 19:10:52;;;;;;;95.60;61.83;;;;;;;-2.71;100.00;102479.78;5072317;28;20063;-81
2022/03/12 19:13:19;;;;;;;95.35;61.67;;;;;;;-2.63;100.00;102485.47;5072867;28;20044;-80
2022/03/12 19:15:46;;;;;;;99.70;61.45;;;;;;;-2.33;100.00;102483.06;5055382;27;20045;-80
2022/03/12 19:18:15;;;;;;;76.43;58.38;;;;;;;-2.63;100.00;102485.47;5061009;28;20473;-82
2022/03/12 19:20:45;;;;;;;69.38;55.67;;;;;;;-2.55;100.00;102485.06;5097712;28;20544;-80
2022/03/12 19:23:13;;;;;;;74.22;57.45;;;;;;;-2.46;100.00;102486.38;5096797;28;20056;-79
2022/03/12 19:25:40;;;;;;;68.30;56.92;;;;;;;-2.37;100.00;102486.72;5093211;28;20523;-80
2022/03/12 19:28:10;;;;;;;87.97;64.72;;;;;;;-2.42;100.00;102488.75;5096537;28;20044;-80
2022/03/12 19:30:37;;;;;;;116.30;70.70;;;;;;;-1.97;100.00;102484.66;5088190;28;20523;-80
2022/03/12 19:33:04;;;;;;;75.28;58.55;;;;;;;-2.22;100.00;102481.66;5076438;28;20056;-81
2022/03/12 19:35:31;;;;;;;68.70;55.55;;;;;;;-2.56;100.00;102476.41;5084472;28;20119;-81
2022/03/12 19:37:59;;;;;;;63.50;53.92;;;;;;;-2.42;100.00;102483.53;5080299;28;20059;-82
2022/03/12 19:40:29;;;;;;;58.47;51.85;;;;;;;-2.46;100.00;102481.16;5079868;28;20378;-81
2022/03/12 19:42:56;;;;;;;55.05;49.20;;;;;;;-2.33;100.00;102485.66;5079555;28;20048;-80
2022/03/12 19:45:23;;;;;;;54.72;49.20;;;;;;;-2.22;100.00;102487.69;5082115;28;20056;-81
2022/03/12 19:47:50;;;;;;;57.72;52.08;;;;;;;-2.32;100.00;102481.31;5082757;28;20112;-80
2022/03/12 19:50:19;;;;;;;53.40;48.05;;;;;;;-2.44;100.00;102479.34;5075219;28;20041;-81
2022/03/12 19:52:46;;;;;;;55.65;50.20;;;;;;;-2.55;100.00;102477.25;5073010;28;20049;-80
2022/03/12 19:55:18;;;;;;;78.65;60.60;;;;;;;-2.54;100.00;102479.81;5071099;28;20072;-81
2022/03/12 19:57:46;;;;;;;63.72;55.53;;;;;;;-2.77;100.00;102483.53;5081026;28;20048;-83
2022/03/12 20:00:14;;;;;;;86.00;65.18;;;;;;;-2.66;100.00;102493.44;5076758;28;20059;-79
2022/03/12 20:02:43;;;;;;;167.40;86.35;;;;;;;-2.86;100.00;102486.59;5076553;28;20118;-81
2022/03/12 20:05:10;;;;;;;119.22;71.25;;;;;;;-2.97;100.00;102482.84;5081848;28;20113;-81
2022/03/12 20:07:38;;;;;;;95.25;64.93;;;;;;;-3.39;100.00;102482.22;5051035;27;20059;-80
2022/03/12 20:10:06;;;;;;;84.13;61.20;;;;;;;-3.58;100.00;102481.41;5086628;28;20043;-81
2022/03/12 20:12:35;;;;;;;87.70;63.85;;;;;;;-3.53;100.00;102489.81;5079303;28;20464;-83
2022/03/12 20:15:02;;;;;;;107.50;69.68;;;;;;;-3.49;100.00;102480.97;5066313;28;20477;-79
2022/03/12 20:17:29;;;;;;;251.55;98.00;;;;;;;-3.37;100.00;102482.16;5066791;28;20512;-82
2022/03/12 20:19:57;;;;;;;134.93;72.38;;;;;;;-3.46;100.00;102478.22;5062553;28;20385;-79
2022/03/12 20:22:25;;;;;;;98.10;64.25;;;;;;;-3.54;100.00;102486.41;5061280;28;20086;-78
2022/03/12 20:24:52;;;;;;;113.00;71.80;;;;;;;-3.59;100.00;102490.94;5065644;28;20052;-82
2022/03/12 20:27:21;;;;;;;94.10;63.30;;;;;;;-3.72;100.00;102490.69;5064319;28;20049;-83
2022/03/12 20:29:50;;;;;;;95.95;64.07;;;;;;;-3.72;100.00;102489.84;5059813;28;20077;-79
2022/03/12 20:32:18;;;;;;;90.97;65.22;;;;;;;-3.81;100.00;102493.69;5066135;28;20049;-81
2022/03/12 20:34:45;;;;;;;88.22;63.42;;;;;;;-3.94;100.00;102485.59;5061466;28;20503;-80
2022/03/12 20:37:14;;;;;;;94.28;61.35;;;;;;;-3.87;100.00;102486.19;5065749;28;20461;-81
2022/03/12 20:39:41;;;;;;;75.53;56.65;;;;;;;-3.96;100.00;102476.22;5063875;28;20110;-80
2022/03/12 20:42:08;;;;;;;70.35;57.53;;;;;;;-4.05;100.00;102495.63;5058964;28;20040;-80
2022/03/12 20:44:36;;;;;;;70.05;57.08;;;;;;;-3.96;100.00;102484.84;5060936;28;20088;-80
2022/03/12 20:47:04;;;;;;;69.43;54.20;;;;;;;-4.12;100.00;102488.16;5061800;28;20060;-82
2022/03/12 20:49:31;;;;;;;61.22;53.22;;;;;;;-4.18;100.00;102494.47;5062988;28;20130;-80
2022/03/12 20:51:58;;;;;;;58.97;52.67;;;;;;;-4.22;100.00;102501.53;5064500;28;20056;-81
2022/03/12 20:54:25;;;;;;;58.25;52.05;;;;;;;-4.24;100.00;102494.72;5067780;28;20041;-81
2022/03/12 20:56:52;;;;;;;57.85;51.88;;;;;;;-4.40;100.00;102494.56;5061234;28;20106;-81
2022/03/12 20:59:20;;;;;;;60.70;54.45;;;;;;;-4.34;100.00;102496.06;5066797;28;20456;-82
2022/03/12 21:01:47;;;;;;;56.13;50.42;;;;;;;-4.36;100.00;102496.09;5067877;28;20053;-81
2022/03/12 21:04:18;;;;;;;60.17;51.15;;;;;;;-4.53;100.00;102488.22;5060443;28;20485;-82
2022/03/12 21:06:44;;;;;;;57.38;51.60;;;;;;;-4.50;100.00;102488.91;5080001;28;20083;-81
2022/03/12 21:09:12;;;;;;;65.10;57.15;;;;;;;-4.38;100.00;102490.16;5066791;28;20106;-79
2022/03/12 21:11:39;;;;;;;67.85;59.28;;;;;;;-4.46;100.00;102492.22;5069373;28;20555;-81
2022/03/12 21:14:06;;;;;;;82.95;60.03;;;;;;;-4.63;100.00;102490.31;5065612;28;20375;-81
2022/03/12 21:16:32;;;;;;;75.60;59.92;;;;;;;-4.45;100.00;102494.78;5059011;28;20044;-79
2022/03/12 21:18:59;;;;;;;80.78;56.78;;;;;;;-4.79;100.00;102497.06;5063302;28;20045;-81
2022/03/12 21:21:27;;;;;;;75.65;58.90;;;;;;;-4.88;100.00;102491.34;5065952;28;20110;-80
2022/03/12 21:24:24;;;;;;;75.00;60.30;;;;;;;-5.15;100.00;102480.34;5128400;27;20378;-79
2022/03/12 21:26:54;;;;;;;72.07;59.65;;;;;;;-4.97;100.00;102483.09;5119497;28;20043;-79
2022/03/12 21:29:22;;;;;;;68.10;57.10;;;;;;;-4.87;100.00;102474.03;5117085;28;20058;-81
2022/03/12 21:31:49;;;;;;;69.05;62.03;;;;;;;-4.78;100.00;102485.78;5117266;28;20051;-83
2022/03/12 21:34:16;;;;;;;62.15;55.78;;;;;;;-4.84;100.00;102479.97;5118242;28;20121;-80
2022/03/12 21:36:42;;;;;;;64.75;58.10;;;;;;;-5.03;100.00;102473.81;5123018;28;20464;-81
2022/03/12 21:39:10;;;;;;;62.47;55.05;;;;;;;-5.32;100.00;102481.03;5122652;28;20108;-81
2022/03/12 21:41:40;;;;;;;61.67;55.17;;;;;;;-4.99;100.00;102478.00;5120036;28;20050;-81
2022/03/12 21:44:07;;;;;;;60.65;54.67;;;;;;;-4.99;100.00;102472.81;5121246;28;20052;-79
2022/03/12 21:46:34;;;;;;;64.35;57.78;;;;;;;-5.17;100.00;102476.16;5115282;28;20372;-78
2022/03/12 21:51:44;;;;;;;69.93;62.47;;;;;;;-5.20;100.00;102465.91;5083009;27;20381;-81
2022/03/12 21:54:12;;;;;;;62.35;55.58;;;;;;;-5.24;100.00;102462.56;5070612;28;20114;-80
2022/03/12 21:56:39;;;;;;;62.80;56.20;;;;;;;-5.37;100.00;102469.16;5069205;28;20741;-81
2022/03/12 21:59:06;;;;;;;62.08;55.33;;;;;;;-5.53;100.00;102461.13;5069482;28;20049;-82
2022/03/12 22:01:33;;;;;;;66.50;58.65;;;;;;;-5.25;100.00;102462.66;5069354;28;20113;-81
2022/03/12 22:04:01;;;;;;;67.97;60.47;;;;;;;-5.11;100.00;102470.72;5067924;28;20121;-82
2022/03/12 22:06:30;;;;;;;68.03;59.67;;;;;;;-5.38;100.00;102455.38;5064375;28;20063;-79
2022/03/12 22:08:59;;;;;;;73.80;65.22;;;;;;;-5.05;100.00;102457.50;5058968;28;20045;-83
2022/03/12 22:11:25;;;;;;;70.72;61.22;;;;;;;-5.23;100.00;102446.16;5064689;28;20106;-80
2022/03/12 22:13:52;;;;;;;75.70;66.00;;;;;;;-5.18;100.00;102449.38;5069483;28;20053;-81
2022/03/12 22:16:19;;;;;;;78.65;68.45;;;;;;;-5.05;100.00;102454.94;5070111;28;20053;-82
2022/03/12 22:18:46;;;;;;;67.05;59.35;;;;;;;-4.84;100.00;102455.78;5064361;28;20049;-82
2022/03/12 22:21:13;;;;;;;69.55;58.05;;;;;;;-5.01;100.00;102443.50;5069442;28;20118;-82
2022/03/12 22:23:41;;;;;;;73.43;65.43;;;;;;;-5.15;100.00;102453.59;5068210;28;20044;-79
2022/03/12 22:26:09;;;;;;;64.15;55.45;;;;;;;-5.19;100.00;102437.34;5070591;28;20044;-81
2022/03/12 22:28:37;;;;;;;69.47;62.50;;;;;;;-4.95;100.00;102432.91;5067774;28;20102;-81
2022/03/12 22:31:04;;;;;;;81.13;72.78;;;;;;;-4.92;100.00;102442.28;5053067;28;20048;-82
2022/03/12 22:33:31;;;;;;;64.35;57.70;;;;;;;-5.48;100.00;102435.06;5064265;28;20053;-79
2022/03/12 22:35:58;;;;;;;72.30;65.10;;;;;;;-5.18;100.00;102436.41;5070097;28;20049;-82
2022/03/12 22:38:25;;;;;;;65.60;59.15;;;;;;;-5.18;100.00;102432.97;5069885;28;20067;-81
2022/03/12 22:40:54;;;;;;;66.03;58.83;;;;;;;-5.01;100.00;102440.94;5069420;28;20049;-80
2022/03/12 22:43:23;;;;;;;63.95;57.90;;;;;;;-5.18;100.00;102428.66;5069099;28;20076;-80
2022/03/12 22:45:56;;;;;;;60.47;54.50;;;;;;;-5.28;100.00;102431.69;5069256;28;20132;-80
2022/03/12 22:48:23;;;;;;;60.63;54.80;;;;;;;-5.31;100.00;102437.81;5062433;28;20558;-80
2022/03/12 22:50:51;;;;;;;56.72;51.65;;;;;;;-5.41;100.00;102437.34;5069138;28;20056;-82
2022/03/12 22:53:18;;;;;;;62.03;56.20;;;;;;;-5.22;100.00;102434.88;5068994;28;20370;-81
2022/03/12 22:55:45;;;;;;;63.75;57.25;;;;;;;-5.55;100.00;102424.09;5068951;28;20048;-81
2022/03/12 22:58:12;;;;;;;58.63;52.67;;;;;;;-5.25;100.00;102429.81;5069457;28;20052;-81
2022/03/12 23:01:21;;;;;;;62.47;56.15;;;;;;;-5.08;100.00;102434.31;5069394;28;20140;-81
2022/03/12 23:09:18;;;;;;;60.22;54.13;;;;;;;-5.35;100.00;102421.56;5049578;28;20087;-80
2022/03/12 23:11:45;;;;;;;64.53;58.15;;;;;;;-5.42;100.00;102427.88;5055245;28;20094;-81
2022/03/12 23:14:22;;;;;;;66.90;58.45;;;;;;;-5.25;100.00;102426.38;5056184;28;20575;-81
2022/03/12 23:16:50;;;;;;;69.80;62.50;;;;;;;-5.46;100.00;102415.97;5055383;28;20123;-80
2022/03/12 23:19:23;;;;;;;72.93;65.32;;;;;;;-5.54;100.00;102408.50;5050017;28;20049;-83
2022/03/12 23:21:50;;;;;;;99.35;88.05;;;;;;;-5.17;100.00;102414.81;5046716;28;20049;-81
2022/03/12 23:24:22;;;;;;;79.72;69.75;;;;;;;-5.45;100.00;102419.38;5055455;28;20119;-81
2022/03/12 23:29:28;;;;;;;71.50;60.90;;;;;;;-5.31;100.00;102412.75;5123622;27;20419;-83
2022/03/12 23:31:57;;;;;;;66.03;56.97;;;;;;;-5.47;100.00;102416.88;5111321;28;20449;-81
2022/03/12 23:34:24;;;;;;;65.22;57.08;;;;;;;-5.25;100.00;102414.25;5110847;28;20134;-82